Rosston, Texas
Current Conditions -  °F | °C
As of 6:35 PM on Wednesday 22 Oct 2014 (Local Time) from KLUD Reporting Station
Clear Clear  
Wind Chill: 74°   Ceiling: Unl
Heat Index: 74°   Visibility: 10mi
Dew Point: 56°   Wind: 7mph
Humidity: 54%   Direction: 120°ESE
Pressure: 30.09"   Gusts: NA
Location:  33.48°N, 97.44°W
Report Text: KLUD 222335Z AUTO 12006KT 10SM CLR 23/14 A3009 RMK AO2 T02320135
Loading
Personal Weather Stations






























Interactive Weather Map
Tropical Storm Tracking
New forecast layout! Learn more

10-Day Weather Forecast

Advertisements
Track Severe Weather on mobile